Goldsboro, Maryland
Current Conditions -  °F | °C
As of 1:58 AM on Friday 28 Nov 2014 (Local Time) from KDOV Reporting Station
Overcast Overcast  
Wind Chill: 26°   Ceiling: 5500
Heat Index: 34°   Visibility: 10mi
Dew Point: 31°   Wind: 10mph
Humidity: 90%   Direction: 270°W
Pressure: 30.12"   Gusts: NA
Location:  39.03°N, 75.79°W
Report Text: KDOV 280658Z AUTO 27009KT 10SM BKN055 OVC065 01/00 A3012 RMK AO2 SLP203 T00101005
Loading
Personal Weather Stations






























Interactive Weather Map New forecast layout! Learn more

10-Day Weather Forecast

Advertisements
Track Severe Weather on mobile